Time;durP1;ratioP1;P1;durP2;ratioP2;P2;SDS_P1;SDS_P2;PMS_P1;PMS_P2;Temp;Humidity;BMP_temperature;BMP_pressure;BME280_temperature;BME280_humidity;BME280_pressure;Samples;Min_cycle;Max_cycle;Signal;HPM_P1;HPM_P2
2021/05/01 00:02:10;;;;;;;15.00;11.68;;;;;;;7.99;68.81;100277.88;5046405;28;20048;-70
2021/05/01 00:04:36;;;;;;;13.05;10.13;;;;;;;7.99;69.08;100267.34;5042362;28;20037;-69
2021/05/01 00:07:01;;;;;;;14.30;10.93;;;;;;;7.98;70.03;100272.72;5045864;28;20036;-69
2021/05/01 00:09:26;;;;;;;17.58;13.77;;;;;;;7.92;70.47;100265.41;5043979;28;20033;-69
2021/05/01 00:11:52;;;;;;;19.77;15.05;;;;;;;7.83;73.33;100267.06;5044854;28;20029;-69
2021/05/01 00:14:17;;;;;;;13.85;10.88;;;;;;;7.81;70.81;100261.94;5041776;28;20048;-70
2021/05/01 00:16:43;;;;;;;12.80;10.05;;;;;;;7.79;72.25;100261.25;5042850;28;20017;-70
2021/05/01 00:19:08;;;;;;;12.70;10.25;;;;;;;7.85;69.75;100247.53;5044984;28;20033;-69
2021/05/01 00:21:34;;;;;;;12.45;9.93;;;;;;;7.85;70.96;100242.28;5042396;28;20036;-69
2021/05/01 00:23:59;;;;;;;14.82;11.75;;;;;;;7.79;70.62;100250.72;5038070;28;20049;-69
2021/05/01 00:26:25;;;;;;;16.55;13.23;;;;;;;7.67;71.80;100241.31;5047226;28;20383;-69
2021/05/01 00:28:50;;;;;;;18.50;14.18;;;;;;;7.57;72.41;100254.47;5037203;28;20032;-69
2021/05/01 00:31:18;;;;;;;19.67;14.77;;;;;;;7.46;72.82;100257.28;5043474;28;20033;-69
2021/05/01 00:33:43;;;;;;;18.80;14.20;;;;;;;7.38;72.13;100247.41;5047110;28;20029;-69
2021/05/01 00:36:09;;;;;;;18.85;14.43;;;;;;;7.33;74.81;100247.00;5046212;28;20036;-69
2021/05/01 00:38:34;;;;;;;18.67;14.57;;;;;;;7.30;73.18;100252.56;5038939;28;20037;-69
2021/05/01 00:41:00;;;;;;;18.67;14.95;;;;;;;7.26;73.09;100250.34;5038679;28;20032;-69
2021/05/01 00:43:26;;;;;;;20.38;15.77;;;;;;;7.18;75.49;100246.59;5040359;28;20025;-69
2021/05/01 00:45:52;;;;;;;20.25;14.65;;;;;;;7.14;74.59;100247.00;5035542;28;20037;-69
2021/05/01 00:48:17;;;;;;;20.25;15.18;;;;;;;7.10;73.77;100248.22;5040114;28;20044;-69
2021/05/01 00:50:43;;;;;;;18.65;13.27;;;;;;;7.09;73.80;100246.56;5032749;28;20030;-69
2021/05/01 00:53:09;;;;;;;17.73;12.93;;;;;;;7.10;74.95;100245.59;5039327;28;20047;-69
2021/05/01 00:55:34;;;;;;;18.13;13.18;;;;;;;7.15;74.47;100248.63;5036358;28;20125;-69
2021/05/01 00:58:00;;;;;;;17.63;13.82;;;;;;;7.23;75.34;100243.56;5031830;28;20472;-69
2021/05/01 01:03:09;;;;;;;16.42;12.55;;;;;;;7.25;74.92;100232.91;5045876;28;20512;-69
2021/05/01 01:05:35;;;;;;;15.52;11.05;;;;;;;7.20;74.06;100234.13;5043227;28;20036;-69
2021/05/01 01:08:00;;;;;;;13.93;10.40;;;;;;;7.15;73.23;100244.25;5043013;28;20529;-69
2021/05/01 01:10:26;;;;;;;14.45;10.48;;;;;;;7.07;72.62;100245.88;5046765;28;20044;-69
2021/05/01 01:12:51;;;;;;;21.13;16.40;;;;;;;6.92;74.48;100245.44;5041192;28;20029;-69
2021/05/01 01:15:29;;;;;;;24.05;17.65;;;;;;;6.73;74.74;100252.28;5037589;28;20046;-69
2021/05/01 01:17:55;;;;;;;25.20;18.50;;;;;;;6.61;76.97;100256.00;5040998;28;20043;-68
2021/05/01 01:20:22;;;;;;;24.23;17.92;;;;;;;6.55;76.52;100251.25;5035523;28;20439;-69
2021/05/01 01:22:47;;;;;;;23.52;16.98;;;;;;;6.53;76.41;100242.69;5041815;28;20045;-69
2021/05/01 01:25:13;;;;;;;20.17;15.52;;;;;;;6.52;76.98;100241.03;5038433;28;20448;-69
2021/05/01 01:27:39;;;;;;;20.17;15.40;;;;;;;6.58;77.57;100230.81;5044497;28;20040;-69
2021/05/01 01:30:06;;;;;;;21.52;16.15;;;;;;;6.56;75.99;100234.56;5044404;28;20295;-68
2021/05/01 01:32:32;;;;;;;21.40;16.10;;;;;;;6.51;76.29;100234.94;5040148;28;20040;-69
2021/05/01 01:34:57;;;;;;;22.52;16.73;;;;;;;6.45;76.15;100230.22;5041478;28;20029;-69
2021/05/01 01:37:23;;;;;;;22.45;17.02;;;;;;;6.36;75.72;100239.72;5043724;28;20087;-69
2021/05/01 01:39:48;;;;;;;21.30;15.48;;;;;;;6.31;77.54;100235.81;5052182;28;20033;-69
2021/05/01 01:42:14;;;;;;;21.58;16.35;;;;;;;6.25;75.96;100234.56;5040032;28;20209;-69
2021/05/01 01:44:39;;;;;;;23.30;17.63;;;;;;;6.18;78.88;100222.91;5046913;28;20475;-69
2021/05/01 01:47:05;;;;;;;22.85;17.40;;;;;;;6.13;77.13;100230.38;5042472;28;20032;-69
2021/05/01 01:49:33;;;;;;;22.17;16.30;;;;;;;6.07;77.16;100230.88;5047170;28;20082;-70
2021/05/01 01:51:59;;;;;;;23.08;16.63;;;;;;;5.99;77.29;100222.81;5048397;28;20044;-69
2021/05/01 01:54:24;;;;;;;21.08;16.38;;;;;;;5.92;77.39;100225.09;5047436;28;20417;-69
2021/05/01 01:56:49;;;;;;;22.25;16.35;;;;;;;5.89;79.51;100228.00;5045342;28;20120;-69
2021/05/01 01:59:16;;;;;;;20.25;15.23;;;;;;;5.87;79.46;100217.59;5037638;28;20115;-68
2021/05/01 02:01:41;;;;;;;20.38;15.68;;;;;;;5.89;79.92;100228.00;5045637;28;20446;-69
2021/05/01 02:04:06;;;;;;;21.33;15.77;;;;;;;5.88;79.10;100221.06;5042703;28;20104;-70
2021/05/01 02:06:32;;;;;;;20.35;14.95;;;;;;;5.90;77.75;100229.63;5043507;28;20037;-69
2021/05/01 02:08:57;;;;;;;21.67;16.25;;;;;;;5.84;77.83;100227.50;5043749;28;20091;-69
2021/05/01 02:11:22;;;;;;;25.25;18.63;;;;;;;5.74;78.43;100227.47;5040749;28;20123;-69
2021/05/01 02:13:48;;;;;;;25.05;17.35;;;;;;;5.68;79.05;100231.44;5037162;28;20163;-69
2021/05/01 02:16:13;;;;;;;22.42;17.23;;;;;;;5.66;81.47;100232.53;5035366;28;20128;-69
2021/05/01 02:18:38;;;;;;;23.23;16.33;;;;;;;5.66;80.63;100229.91;5033809;28;20037;-69
2021/05/01 02:21:04;;;;;;;21.83;16.30;;;;;;;5.72;81.74;100224.13;5047237;28;20033;-69
2021/05/01 02:23:30;;;;;;;19.40;15.15;;;;;;;5.77;81.11;100229.84;5037341;28;20452;-69
2021/05/01 02:25:55;;;;;;;20.63;15.52;;;;;;;5.77;78.39;100231.63;5047438;28;20053;-69
2021/05/01 02:28:20;;;;;;;24.33;17.50;;;;;;;5.73;79.35;100233.69;5046802;28;20087;-69
2021/05/01 02:30:46;;;;;;;23.17;17.48;;;;;;;5.67;79.47;100235.03;5038049;28;20034;-69
2021/05/01 02:33:12;;;;;;;23.98;17.85;;;;;;;5.69;81.06;100238.31;5044125;28;20057;-69
2021/05/01 02:35:39;;;;;;;20.63;15.05;;;;;;;5.81;78.33;100238.28;5051492;28;20460;-69
2021/05/01 02:38:05;;;;;;;18.00;13.23;;;;;;;5.89;77.56;100249.81;5035314;28;20037;-69
2021/05/01 02:40:31;;;;;;;23.88;16.67;;;;;;;5.91;78.17;100241.78;5047604;28;20068;-69
2021/05/01 02:43:05;;;;;;;23.45;17.25;;;;;;;5.92;78.05;100219.84;5050369;28;20150;-69
2021/05/01 02:45:31;;;;;;;22.25;16.38;;;;;;;5.88;77.83;100216.63;5041143;28;20029;-69
2021/05/01 02:47:57;;;;;;;21.05;15.10;;;;;;;5.88;78.06;100215.81;5041922;28;20075;-69
2021/05/01 02:50:22;;;;;;;19.52;14.98;;;;;;;5.91;78.44;100213.78;5043256;28;20037;-69
2021/05/01 02:52:48;;;;;;;21.95;16.05;;;;;;;5.90;78.66;100211.28;5044410;28;20037;-69
2021/05/01 02:55:14;;;;;;;21.50;16.80;;;;;;;5.82;78.69;100209.28;5043138;28;20048;-69
2021/05/01 02:57:40;;;;;;;23.27;17.42;;;;;;;5.75;78.55;100203.72;5041856;28;20456;-69
2021/05/01 03:00:12;;;;;;;23.50;17.58;;;;;;;5.67;79.65;100195.69;5041388;28;20116;-70
2021/05/01 03:02:37;;;;;;;23.70;17.77;;;;;;;5.59;78.67;100184.16;5045339;28;20441;-69
2021/05/01 03:05:03;;;;;;;24.55;17.20;;;;;;;5.51;80.98;100183.00;5047396;28;20031;-69
2021/05/01 03:07:29;;;;;;;25.25;17.38;;;;;;;5.53;80.05;100175.84;5042807;28;20029;-69
2021/05/01 03:09:54;;;;;;;24.75;16.77;;;;;;;5.52;81.59;100174.16;5040998;28;20034;-69
2021/05/01 03:12:19;;;;;;;22.15;17.02;;;;;;;5.55;80.53;100173.06;5044993;28;20433;-69
2021/05/01 03:14:45;;;;;;;24.40;17.45;;;;;;;5.49;81.19;100168.34;5044671;28;20103;-69
2021/05/01 03:17:11;;;;;;;22.25;16.30;;;;;;;5.45;80.93;100173.00;5036416;28;20032;-69
2021/05/01 03:19:37;;;;;;;24.30;17.33;;;;;;;5.40;80.05;100166.50;5046308;28;20036;-69
2021/05/01 03:22:02;;;;;;;21.73;16.35;;;;;;;5.40;81.29;100182.22;5040138;28;20489;-69
2021/05/01 03:24:29;;;;;;;19.13;13.90;;;;;;;5.48;80.80;100174.53;5038898;28;20459;-69
2021/05/01 03:26:54;;;;;;;21.45;16.00;;;;;;;5.56;78.69;100164.25;5048804;28;20033;-69
2021/05/01 03:29:20;;;;;;;20.17;14.32;;;;;;;5.58;78.38;100151.84;5043818;28;20025;-69
2021/05/01 03:31:45;;;;;;;18.90;13.73;;;;;;;5.55;78.75;100152.09;5038811;28;20029;-69
2021/05/01 03:34:10;;;;;;;21.52;15.75;;;;;;;5.49;79.00;100157.88;5035926;28;20033;-69
2021/05/01 03:36:36;;;;;;;19.23;14.70;;;;;;;5.44;79.12;100155.63;5044784;28;20433;-69
2021/05/01 03:39:01;;;;;;;17.73;13.15;;;;;;;5.47;79.71;100165.03;5040443;28;20044;-69
2021/05/01 03:41:26;;;;;;;19.65;14.75;;;;;;;5.49;81.63;100163.94;5041950;28;20029;-69
2021/05/01 03:43:52;;;;;;;19.90;14.63;;;;;;;5.43;78.58;100164.44;5042541;28;20175;-69
2021/05/01 03:46:17;;;;;;;22.67;16.65;;;;;;;5.29;79.05;100162.13;5037690;28;20542;-69
2021/05/01 03:48:42;;;;;;;22.33;16.75;;;;;;;5.22;82.33;100167.06;5042981;28;20032;-69
2021/05/01 03:51:07;;;;;;;23.17;16.55;;;;;;;5.28;80.81;100163.09;5042732;28;20038;-69
2021/05/01 03:53:33;;;;;;;20.08;14.35;;;;;;;5.38;79.25;100171.84;5045269;28;20037;-69
2021/05/01 03:55:58;;;;;;;18.83;14.55;;;;;;;5.36;80.97;100168.53;5040819;28;20116;-69
2021/05/01 03:58:24;;;;;;;23.80;18.20;;;;;;;5.25;79.50;100172.03;5043927;28;20623;-69
2021/05/01 04:00:50;;;;;;;25.33;18.08;;;;;;;5.15;81.91;100175.53;5041724;28;20037;-69
2021/05/01 04:03:15;;;;;;;25.50;17.83;;;;;;;5.04;80.05;100176.44;5044502;28;20516;-69
2021/05/01 04:05:41;;;;;;;24.92;17.80;;;;;;;5.00;82.62;100180.25;5033283;28;20031;-69
2021/05/01 04:08:06;;;;;;;22.88;16.77;;;;;;;4.98;82.21;100183.00;5038997;28;20091;-69
2021/05/01 04:10:33;;;;;;;24.40;17.85;;;;;;;4.93;82.25;100181.69;5042423;28;20422;-69
2021/05/01 04:12:58;;;;;;;24.70;18.08;;;;;;;4.88;82.17;100195.16;5044496;28;20033;-69
2021/05/01 04:15:24;;;;;;;24.83;17.88;;;;;;;4.83;82.77;100185.06;5036008;28;20017;-69
2021/05/01 04:17:49;;;;;;;24.52;17.75;;;;;;;4.81;82.82;100194.00;5041716;28;20090;-69
2021/05/01 04:20:15;;;;;;;24.02;17.23;;;;;;;4.81;83.75;100199.22;5039415;28;20079;-68
2021/05/01 04:22:40;;;;;;;22.92;16.83;;;;;;;4.81;83.74;100186.13;5041580;28;20029;-69
2021/05/01 04:25:07;;;;;;;23.15;17.35;;;;;;;4.80;84.21;100182.69;5039462;28;20021;-69
2021/05/01 04:27:32;;;;;;;21.48;16.80;;;;;;;4.82;83.70;100179.97;5044975;28;20051;-69
2021/05/01 04:29:58;;;;;;;22.50;15.95;;;;;;;4.85;81.61;100179.69;5034559;28;20140;-69
2021/05/01 04:32:24;;;;;;;24.67;17.52;;;;;;;4.82;82.41;100180.78;5042533;28;20067;-69
2021/05/01 04:34:49;;;;;;;23.90;17.85;;;;;;;4.77;83.18;100187.34;5038882;28;20707;-69
2021/05/01 04:37:15;;;;;;;23.35;17.40;;;;;;;4.72;84.13;100182.47;5041621;28;20037;-69
2021/05/01 04:39:40;;;;;;;26.33;18.75;;;;;;;4.71;83.61;100191.28;5036017;28;20025;-69
2021/05/01 04:42:07;;;;;;;24.42;18.00;;;;;;;4.73;84.23;100186.75;5038156;28;20039;-69
2021/05/01 04:44:33;;;;;;;26.30;18.75;;;;;;;4.78;84.60;100183.75;5043392;28;20452;-69
2021/05/01 04:46:58;;;;;;;25.33;18.42;;;;;;;4.84;83.74;100176.25;5037220;28;20041;-70
2021/05/01 04:49:24;;;;;;;25.40;18.83;;;;;;;4.86;82.97;100176.09;5042391;28;20033;-69
2021/05/01 04:51:49;;;;;;;24.73;17.67;;;;;;;4.87;83.29;100175.19;5038625;28;20409;-69
2021/05/01 04:54:15;;;;;;;22.88;17.17;;;;;;;4.91;83.38;100176.59;5043272;28;20037;-69
2021/05/01 04:56:40;;;;;;;24.42;18.58;;;;;;;4.90;83.31;100175.75;5042828;28;20060;-69
2021/05/01 04:59:06;;;;;;;22.02;15.43;;;;;;;4.99;81.62;100168.94;5042234;28;20041;-68
2021/05/01 05:01:34;;;;;;;23.10;16.25;;;;;;;5.06;81.89;100166.66;5032383;28;20040;-69
2021/05/01 05:04:00;;;;;;;23.40;16.92;;;;;;;5.10;82.04;100162.81;5046461;28;20040;-69
2021/05/01 05:06:25;;;;;;;21.63;16.30;;;;;;;5.17;81.86;100163.13;5050845;28;20474;-69
2021/05/01 05:08:51;;;;;;;19.35;14.25;;;;;;;5.29;81.08;100170.84;5038096;28;20029;-69
2021/05/01 05:11:17;;;;;;;20.92;14.48;;;;;;;5.41;81.29;100168.16;5043293;28;20524;-70
2021/05/01 05:13:42;;;;;;;23.17;16.08;;;;;;;5.53;80.84;100180.25;5043726;28;20053;-68
2021/05/01 05:16:07;;;;;;;22.05;16.42;;;;;;;5.60;79.67;100181.41;5050316;28;20559;-69
2021/05/01 05:18:33;;;;;;;18.83;14.02;;;;;;;5.66;78.85;100174.81;5045376;28;20029;-68
2021/05/01 05:20:59;;;;;;;19.80;14.25;;;;;;;5.76;79.34;100170.44;5043672;28;20404;-70
2021/05/01 05:23:24;;;;;;;18.98;13.65;;;;;;;5.92;79.34;100183.09;5036054;28;20029;-69
2021/05/01 05:25:50;;;;;;;20.63;14.60;;;;;;;5.98;78.72;100185.22;5047946;28;20064;-70
2021/05/01 05:28:15;;;;;;;20.58;15.70;;;;;;;6.07;78.80;100192.31;5045383;28;20509;-70
2021/05/01 05:30:41;;;;;;;16.95;12.43;;;;;;;6.34;78.09;100206.66;5055983;28;20029;-70
2021/05/01 05:33:06;;;;;;;14.32;10.88;;;;;;;6.55;77.58;100211.84;5052109;28;20029;-70
2021/05/01 05:35:31;;;;;;;13.57;10.25;;;;;;;6.66;77.12;100216.19;5047856;28;20053;-70
2021/05/01 05:37:56;;;;;;;15.18;11.18;;;;;;;6.70;76.62;100213.16;5056445;28;20090;-70
2021/05/01 05:40:22;;;;;;;13.63;10.38;;;;;;;6.70;77.27;100209.72;5037302;28;20366;-71
2021/05/01 05:42:49;;;;;;;15.95;12.27;;;;;;;6.76;77.33;100215.22;5040846;28;20037;-70
2021/05/01 05:45:23;;;;;;;18.75;13.10;;;;;;;6.78;76.84;100218.56;5038536;28;20033;-70
2021/05/01 05:47:49;;;;;;;14.02;10.23;;;;;;;6.80;76.84;100216.63;5043248;28;20033;-70
2021/05/01 05:50:14;;;;;;;12.73;9.30;;;;;;;6.84;77.17;100217.22;5044842;28;20036;-70
2021/05/01 05:52:40;;;;;;;14.90;11.45;;;;;;;6.95;76.72;100211.81;5050269;28;20033;-70
2021/05/01 05:55:05;;;;;;;19.45;13.82;;;;;;;7.09;75.70;100218.47;5045929;28;20025;-70
2021/05/01 05:57:31;;;;;;;21.77;16.15;;;;;;;7.19;75.55;100208.78;5045551;28;20060;-70
2021/05/01 05:59:56;;;;;;;20.08;14.50;;;;;;;7.34;74.99;100211.00;5043716;28;20064;-70
2021/05/01 06:02:22;;;;;;;20.75;14.43;;;;;;;7.54;75.29;100206.59;5044213;28;20041;-70
2021/05/01 06:05:07;;;;;;;22.95;16.02;;;;;;;7.74;74.55;100205.56;5047995;28;20040;-70
2021/05/01 06:07:54;;;;;;;18.48;13.90;;;;;;;7.92;73.60;100203.06;5044540;28;20211;-70
2021/05/01 06:10:23;;;;;;;19.48;14.23;;;;;;;8.22;72.50;100202.00;5044866;28;20030;-71
2021/05/01 06:12:51;;;;;;;30.48;22.35;;;;;;;8.64;71.79;100184.91;5045575;28;20048;-70
2021/05/01 06:15:17;;;;;;;30.30;20.15;;;;;;;9.20;70.88;100177.69;5037077;28;20564;-70
2021/05/01 06:17:45;;;;;;;24.20;17.50;;;;;;;9.69;66.13;100175.47;5045706;28;20127;-70
2021/05/01 06:20:12;;;;;;;20.85;15.25;;;;;;;10.28;67.23;100181.78;5039881;28;20021;-71
2021/05/01 06:22:38;;;;;;;27.70;20.02;;;;;;;10.85;65.39;100178.50;5036211;28;20045;-70
2021/05/01 06:25:09;;;;;;;26.27;19.10;;;;;;;11.33;63.24;100170.78;5041490;28;20560;-69
2021/05/01 06:27:34;;;;;;;24.63;18.83;;;;;;;11.67;62.95;100173.22;5038101;28;20448;-69
2021/05/01 06:30:01;;;;;;;27.10;19.90;;;;;;;11.77;60.45;100176.53;5035989;28;20022;-69
2021/05/01 06:32:26;;;;;;;26.80;20.27;;;;;;;11.71;60.52;100179.84;5044194;28;20116;-69
2021/05/01 06:34:54;;;;;;;26.52;18.60;;;;;;;12.14;62.50;100190.25;5048732;28;20108;-70
2021/05/01 06:37:24;;;;;;;25.48;18.52;;;;;;;12.35;57.78;100182.53;5042246;28;20664;-70
2021/05/01 06:39:51;;;;;;;24.65;17.90;;;;;;;12.85;58.91;100177.84;5051691;28;20033;-69
2021/05/01 06:42:25;;;;;;;31.40;20.85;;;;;;;13.41;56.43;100188.25;5042398;28;20093;-70
2021/05/01 06:44:52;;;;;;;26.63;18.92;;;;;;;13.71;55.78;100194.47;5038865;28;20428;-69
2021/05/01 06:47:26;;;;;;;25.58;19.63;;;;;;;13.48;56.55;100200.63;5045815;28;20514;-70
2021/05/01 06:49:57;;;;;;;27.05;20.42;;;;;;;13.94;54.06;100197.06;5046436;28;20241;-70
2021/05/01 06:52:23;;;;;;;25.38;18.52;;;;;;;14.03;57.66;100191.47;5033766;28;20057;-72
2021/05/01 06:54:51;;;;;;;29.98;21.92;;;;;;;14.64;53.79;100203.78;5043417;28;20121;-69
2021/05/01 06:57:22;;;;;;;18.27;14.90;;;;;;;13.88;55.29;100193.28;5047257;28;20038;-69
2021/05/01 06:59:53;;;;;;;23.73;19.58;;;;;;;13.22;56.25;100194.81;5038150;28;20033;-69
2021/05/01 07:02:24;;;;;;;21.77;17.33;;;;;;;12.77;58.34;100189.28;5046906;28;20063;-70
2021/05/01 07:04:52;;;;;;;23.00;19.88;;;;;;;12.37;58.65;100185.84;5042265;28;20033;-70
2021/05/01 07:07:20;;;;;;;21.27;15.55;;;;;;;12.52;59.42;100204.50;5045232;28;20033;-70
2021/05/01 07:09:45;;;;;;;27.08;20.70;;;;;;;12.65;58.21;100223.34;5043156;28;20025;-70
2021/05/01 07:12:12;;;;;;;30.25;23.67;;;;;;;12.81;57.55;100230.41;5047628;28;20710;-70
2021/05/01 07:14:39;;;;;;;29.55;22.70;;;;;;;12.44;57.97;100221.28;5041046;28;20040;-70
2021/05/01 07:17:05;;;;;;;22.65;18.42;;;;;;;12.26;59.42;100218.03;5046570;28;20152;-70
2021/05/01 07:19:32;;;;;;;27.73;21.77;;;;;;;12.45;58.21;100225.59;5040758;28;20267;-70
2021/05/01 07:21:57;;;;;;;26.95;20.98;;;;;;;12.50;58.06;100217.94;5050041;28;20033;-70
2021/05/01 07:24:24;;;;;;;29.58;22.92;;;;;;;12.52;59.44;100207.16;5037029;28;20035;-70
2021/05/01 07:26:49;;;;;;;24.92;19.15;;;;;;;12.89;58.37;100201.16;5050722;28;20027;-70
2021/05/01 07:29:16;;;;;;;27.13;21.42;;;;;;;12.37;60.80;100199.13;5037776;28;20037;-69
2021/05/01 07:31:41;;;;;;;25.48;19.77;;;;;;;12.43;60.16;100194.94;5043163;28;20045;-70
2021/05/01 07:34:12;;;;;;;25.25;19.35;;;;;;;12.37;58.34;100196.47;5040121;28;20034;-70
2021/05/01 07:36:46;;;;;;;30.45;23.77;;;;;;;12.18;59.77;100191.53;5042199;28;20120;-70
2021/05/01 07:39:13;;;;;;;20.60;16.85;;;;;;;12.15;60.60;100191.88;5033671;28;20037;-70
2021/05/01 07:41:44;;;;;;;23.88;18.98;;;;;;;12.14;60.96;100187.59;5043374;28;20135;-69
2021/05/01 07:44:11;;;;;;;27.98;20.42;;;;;;;12.19;60.38;100191.38;5038231;28;20208;-71
2021/05/01 07:46:40;;;;;;;22.15;17.90;;;;;;;12.16;61.59;100193.56;5043033;28;20036;-70
2021/05/01 07:49:07;;;;;;;31.67;23.85;;;;;;;11.91;59.74;100188.28;5038617;28;20061;-70
2021/05/01 07:51:36;;;;;;;35.50;25.75;;;;;;;12.28;58.65;100192.19;5040517;28;20036;-70
2021/05/01 07:54:03;;;;;;;24.42;19.30;;;;;;;12.24;59.56;100190.84;5041308;28;20117;-71
2021/05/01 07:56:28;;;;;;;27.52;20.95;;;;;;;12.41;59.36;100199.59;5042570;28;20040;-70
2021/05/01 07:58:55;;;;;;;29.90;22.30;;;;;;;12.68;58.69;100199.13;5045829;28;20029;-70
2021/05/01 08:01:22;;;;;;;27.98;21.45;;;;;;;12.86;58.63;100211.31;5044679;28;20038;-70
2021/05/01 08:03:48;;;;;;;25.80;20.42;;;;;;;12.68;58.36;100211.56;5043309;28;20331;-70
2021/05/01 08:06:13;;;;;;;32.17;24.30;;;;;;;12.75;58.34;100209.88;5044731;28;20318;-70
2021/05/01 08:08:38;;;;;;;22.67;18.75;;;;;;;12.65;59.74;100214.56;5038244;28;20037;-70
2021/05/01 08:11:04;;;;;;;25.85;19.55;;;;;;;12.66;59.67;100209.09;5040656;28;20045;-70
2021/05/01 08:13:30;;;;;;;27.17;19.80;;;;;;;12.85;57.34;100204.38;5043411;28;20089;-70
2021/05/01 08:15:56;;;;;;;27.92;21.33;;;;;;;12.89;55.38;100198.50;5040676;28;20102;-70
2021/05/01 08:18:22;;;;;;;27.13;21.42;;;;;;;12.30;58.22;100195.50;5044180;28;20076;-70
2021/05/01 08:20:49;;;;;;;29.90;23.80;;;;;;;12.61;57.95;100202.63;5049657;28;20067;-70
2021/05/01 08:23:15;;;;;;;28.65;22.83;;;;;;;13.03;56.54;100196.94;5041439;28;20037;-70
2021/05/01 08:25:40;;;;;;;25.38;20.65;;;;;;;12.89;56.16;100190.53;5048815;28;20029;-70
2021/05/01 08:28:06;;;;;;;24.80;19.25;;;;;;;12.73;57.82;100188.81;5042155;28;20032;-71
2021/05/01 08:30:31;;;;;;;23.40;18.50;;;;;;;13.05;56.59;100186.97;5047016;28;20040;-70
2021/05/01 08:32:56;;;;;;;28.10;21.88;;;;;;;13.25;54.91;100184.69;5045310;28;20037;-70
2021/05/01 08:35:21;;;;;;;19.88;16.00;;;;;;;13.05;56.04;100181.66;5041157;28;20401;-70
2021/05/01 08:37:47;;;;;;;18.92;15.68;;;;;;;13.12;54.33;100181.78;5038184;28;20609;-70
2021/05/01 08:40:14;;;;;;;17.38;13.82;;;;;;;13.30;54.40;100182.34;5047529;28;20094;-70
2021/05/01 08:42:45;;;;;;;16.00;13.00;;;;;;;13.64;54.07;100181.06;5044462;28;20037;-70
2021/05/01 08:45:11;;;;;;;13.45;11.35;;;;;;;13.81;53.10;100185.22;5049160;28;20394;-70
2021/05/01 08:47:42;;;;;;;22.33;18.10;;;;;;;13.90;52.68;100191.28;5037466;28;20036;-70
2021/05/01 08:50:24;;;;;;;19.90;16.17;;;;;;;13.73;51.86;100193.28;5044217;28;20547;-70
2021/05/01 08:52:50;;;;;;;18.15;13.75;;;;;;;13.99;52.21;100194.66;5036376;28;20037;-70
2021/05/01 08:55:15;;;;;;;18.83;15.18;;;;;;;13.88;52.93;100195.13;5041382;28;20039;-70
2021/05/01 08:57:40;;;;;;;18.45;14.23;;;;;;;13.80;52.21;100194.22;5046710;28;20021;-70
2021/05/01 09:00:06;;;;;;;19.92;15.73;;;;;;;13.42;52.76;100205.81;5031513;28;20462;-70
2021/05/01 09:02:32;;;;;;;17.73;13.65;;;;;;;13.16;52.46;100209.66;5040868;28;20032;-70
2021/05/01 09:04:59;;;;;;;15.90;11.88;;;;;;;13.11;52.97;100209.34;5040523;28;20033;-70
2021/05/01 09:07:25;;;;;;;48.55;29.67;;;;;;;12.99;54.35;100216.03;5036300;28;20407;-70
2021/05/01 09:09:57;;;;;;;26.95;18.25;;;;;;;12.88;51.96;100212.78;5042554;28;20025;-70
2021/05/01 09:12:38;;;;;;;15.35;11.98;;;;;;;12.86;53.31;100208.66;5032603;28;20036;-70
2021/05/01 09:15:06;;;;;;;12.95;10.00;;;;;;;12.91;53.10;100196.50;5031083;28;20056;-70
2021/05/01 09:17:32;;;;;;;13.20;9.45;;;;;;;12.81;53.43;100197.75;5042748;28;20087;-70
2021/05/01 09:20:17;;;;;;;15.18;11.98;;;;;;;12.85;53.72;100194.56;5038351;28;20537;-70
2021/05/01 09:22:57;;;;;;;16.75;13.07;;;;;;;12.61;52.53;100189.38;5044076;28;20128;-70
2021/05/01 09:25:32;;;;;;;16.95;13.23;;;;;;;12.34;53.29;100186.19;5035082;28;20059;-70
2021/05/01 09:28:10;;;;;;;19.48;14.30;;;;;;;12.35;54.01;100184.34;5033772;28;20040;-70
2021/05/01 09:30:38;;;;;;;15.30;11.38;;;;;;;12.62;53.16;100189.22;5038528;28;20076;-70
2021/05/01 09:33:23;;;;;;;12.45;10.35;;;;;;;12.64;56.38;100191.69;5045313;28;20756;-70
2021/05/01 09:35:54;;;;;;;14.48;11.55;;;;;;;12.76;52.97;100190.31;5046385;28;20064;-70
2021/05/01 09:38:20;;;;;;;16.88;12.07;;;;;;;12.87;53.32;100191.72;5044490;28;20033;-70
2021/05/01 09:40:47;;;;;;;15.23;11.95;;;;;;;12.98;54.50;100190.50;5033644;28;20041;-69
2021/05/01 09:43:13;;;;;;;19.33;15.02;;;;;;;12.81;54.37;100187.13;5032480;28;20044;-70
2021/05/01 09:45:39;;;;;;;15.05;11.43;;;;;;;12.86;52.41;100187.44;5036450;28;20029;-70
2021/05/01 09:48:16;;;;;;;14.70;11.23;;;;;;;13.12;53.34;100181.78;5041765;28;20116;-70
2021/05/01 09:50:41;;;;;;;17.30;13.40;;;;;;;13.39;53.00;100180.44;5034988;28;20083;-70
2021/05/01 09:53:17;;;;;;;14.73;12.43;;;;;;;13.28;51.67;100176.41;5051981;28;20025;-70
2021/05/01 09:55:54;;;;;;;13.80;11.15;;;;;;;13.32;53.38;100171.53;5038642;28;20451;-69
2021/05/01 09:58:24;;;;;;;16.67;12.35;;;;;;;13.33;52.89;100171.38;5045368;28;20056;-70
2021/05/01 10:00:51;;;;;;;17.70;13.40;;;;;;;13.11;51.79;100157.09;5040594;28;20450;-70
2021/05/01 10:03:22;;;;;;;13.73;11.02;;;;;;;13.18;53.10;100162.50;5049181;28;20030;-70
2021/05/01 10:05:49;;;;;;;17.77;13.63;;;;;;;13.15;52.37;100160.19;5046956;28;20033;-70
2021/05/01 10:08:19;;;;;;;16.05;12.45;;;;;;;12.94;52.67;100159.03;5047777;28;20506;-70
2021/05/01 10:10:46;;;;;;;18.08;14.32;;;;;;;13.10;52.75;100160.72;5043596;28;20544;-70
2021/05/01 10:13:14;;;;;;;15.68;11.63;;;;;;;12.95;51.95;100158.00;5046131;28;20398;-70
2021/05/01 10:15:40;;;;;;;17.67;13.07;;;;;;;12.86;53.40;100155.59;5047232;28;20033;-69
2021/05/01 10:18:13;;;;;;;17.90;13.02;;;;;;;12.95;53.04;100146.56;5032221;28;20525;-70
2021/05/01 10:20:41;;;;;;;12.63;9.10;;;;;;;13.15;54.13;100147.72;5039224;28;20041;-69
2021/05/01 10:23:08;;;;;;;13.57;10.93;;;;;;;13.53;52.68;100152.28;5034982;28;20034;-69
2021/05/01 10:25:34;;;;;;;18.65;14.05;;;;;;;13.60;52.72;100154.03;5043601;28;20037;-69
2021/05/01 10:28:04;;;;;;;16.52;12.50;;;;;;;13.37;54.81;100148.78;5045395;28;20107;-69
2021/05/01 10:30:34;;;;;;;13.70;10.33;;;;;;;13.35;50.46;100147.31;5043044;28;20500;-69
2021/05/01 10:33:39;;;;;;;12.15;9.68;;;;;;;13.27;50.53;100147.31;5036868;28;20296;-69
2021/05/01 10:36:11;;;;;;;15.10;10.57;;;;;;;13.23;50.71;100149.53;5042327;28;20332;-69
2021/05/01 10:38:38;;;;;;;10.10;8.57;;;;;;;13.31;51.51;100141.50;5032301;28;20036;-69
2021/05/01 10:41:05;;;;;;;13.30;9.52;;;;;;;13.44;51.38;100142.72;5032293;28;20044;-68
2021/05/01 10:43:37;;;;;;;17.45;12.98;;;;;;;13.46;50.96;100138.06;5041820;28;20333;-69
2021/05/01 10:46:11;;;;;;;16.00;12.07;;;;;;;13.32;50.71;100137.88;5042192;28;20402;-69
2021/05/01 10:48:46;;;;;;;13.00;10.70;;;;;;;13.28;50.69;100135.75;5045536;28;20108;-69
2021/05/01 10:51:13;;;;;;;12.55;9.82;;;;;;;13.17;51.66;100127.16;5038714;28;20521;-68
2021/05/01 10:53:39;;;;;;;14.18;10.77;;;;;;;13.32;52.22;100135.22;5049834;28;20120;-69
2021/05/01 10:56:06;;;;;;;13.18;10.25;;;;;;;13.43;51.33;100131.28;5040240;28;20025;-69
2021/05/01 10:58:32;;;;;;;14.05;11.80;;;;;;;13.69;50.10;100133.53;5035686;28;20064;-68
2021/05/01 11:00:58;;;;;;;16.90;13.05;;;;;;;13.56;51.06;100131.50;5050822;28;20643;-68
2021/05/01 11:03:25;;;;;;;17.45;13.77;;;;;;;13.28;52.09;100131.25;5036669;28;20052;-69
2021/05/01 11:05:54;;;;;;;14.65;11.95;;;;;;;13.42;51.69;100131.44;5042667;28;20119;-69
2021/05/01 11:08:40;;;;;;;14.57;11.70;;;;;;;13.63;51.84;100141.38;5042538;28;20321;-69
2021/05/01 11:11:10;;;;;;;16.65;13.70;;;;;;;13.79;51.18;100134.06;5037605;28;20091;-70
2021/05/01 11:13:38;;;;;;;16.70;13.13;;;;;;;13.86;51.91;100136.84;5041059;28;20026;-69
2021/05/01 11:16:08;;;;;;;19.73;12.35;;;;;;;14.10;51.36;100135.72;5045666;28;20102;-69
2021/05/01 11:18:37;;;;;;;15.27;11.82;;;;;;;14.07;50.74;100140.59;5029945;28;20056;-69